Time;durP1;ratioP1;P1;durP2;ratioP2;P2;SDS_P1;SDS_P2;PMS_P1;PMS_P2;Temp;Humidity;BMP_temperature;BMP_pressure;BME280_temperature;BME280_humidity;BME280_pressure;Samples;Min_cycle;Max_cycle;Signal;HPM_P1;HPM_P2
2022/08/03 00:01:01;;;;;;;6.65;1.65;;;;;;;;;;5053876;28;20215;-61
2022/08/03 00:03:26;;;;;;;7.10;1.85;;;;;;;;;;5054415;28;20666;-61
2022/08/03 00:05:52;;;;;;;8.23;2.13;;;;;;;;;;5035904;28;20219;-61
2022/08/03 00:08:17;;;;;;;5.97;2.20;;;;;;;;;;5053895;28;20805;-61
2022/08/03 00:10:42;;;;;;;8.18;1.85;;;;;;;;;;5054030;28;20218;-61
2022/08/03 00:13:08;;;;;;;9.82;2.10;;;;;;;;;;5053014;28;20249;-61
2022/08/03 00:15:33;;;;;;;7.10;2.17;;;;;;;;;;5053842;28;20219;-61
2022/08/03 00:17:58;;;;;;;6.47;1.90;;;;;;;;;;5054015;28;20216;-61
2022/08/03 00:20:24;;;;;;;10.95;1.88;;;;;;;;;;5053030;28;20206;-61
2022/08/03 00:22:49;;;;;;;7.95;2.50;;;;;;;;;;5054151;28;20211;-61
2022/08/03 00:25:14;;;;;;;7.82;2.15;;;;;;;;;;5035991;28;20674;-61
2022/08/03 00:27:40;;;;;;;8.73;1.98;;;;;;;;;;5053141;28;20226;-61
2022/08/03 00:30:05;;;;;;;6.78;1.88;;;;;;;;;;5053781;28;20566;-61
2022/08/03 00:32:31;;;;;;;10.10;2.25;;;;;;;;;;5053647;28;20269;-61
2022/08/03 00:34:56;;;;;;;10.35;2.50;;;;;;;;;;5053378;28;20228;-61
2022/08/03 00:37:21;;;;;;;9.73;2.58;;;;;;;;;;5053263;28;20214;-61
2022/08/03 00:39:46;;;;;;;6.18;2.10;;;;;;;;;;5053546;28;20222;-61
2022/08/03 00:42:12;;;;;;;10.68;2.45;;;;;;;;;;5052042;28;20608;-61
2022/08/03 00:44:39;;;;;;;10.70;2.28;;;;;;;;;;5053725;28;20215;-61
2022/08/03 00:47:04;;;;;;;6.30;1.90;;;;;;;;;;5052801;28;20281;-62
2022/08/03 00:49:30;;;;;;;10.05;2.50;;;;;;;;;;5052718;28;20654;-61
2022/08/03 00:51:55;;;;;;;6.95;2.22;;;;;;;;;;5031751;28;20334;-61
2022/08/03 00:54:20;;;;;;;9.20;2.90;;;;;;;;;;5039515;28;20658;-61
2022/08/03 00:56:46;;;;;;;7.68;2.53;;;;;;;;;;5022675;28;20216;-61
2022/08/03 00:59:11;;;;;;;6.82;2.40;;;;;;;;;;5020435;28;20250;-62
2022/08/03 01:01:36;;;;;;;9.05;2.70;;;;;;;;;;5034219;28;20222;-61
2022/08/03 01:04:02;;;;;;;6.18;2.53;;;;;;;;;;5026359;28;20234;-62
2022/08/03 01:06:32;;;;;;;7.35;2.60;;;;;;;;;;5021459;28;20247;-61
2022/08/03 01:09:02;;;;;;;10.00;2.38;;;;;;;;;;5027186;28;20563;-61
2022/08/03 01:11:31;;;;;;;9.25;2.75;;;;;;;;;;5042194;28;20223;-61
2022/08/03 01:14:00;;;;;;;11.65;2.47;;;;;;;;;;5042335;28;20585;-61
2022/08/03 01:16:27;;;;;;;10.07;2.75;;;;;;;;;;5023771;28;20250;-61
2022/08/03 01:18:54;;;;;;;7.18;2.55;;;;;;;;;;5024957;28;20234;-61
2022/08/03 01:21:25;;;;;;;9.02;2.30;;;;;;;;;;5037222;28;20210;-61
2022/08/03 01:23:54;;;;;;;6.60;1.92;;;;;;;;;;5016343;28;20448;-61
2022/08/03 01:26:27;;;;;;;8.23;2.30;;;;;;;;;;5017334;28;20235;-61
2022/08/03 01:28:53;;;;;;;8.43;2.50;;;;;;;;;;5040258;28;20260;-61
2022/08/03 01:31:20;;;;;;;8.60;2.47;;;;;;;;;;5040958;28;20231;-61
2022/08/03 01:33:46;;;;;;;9.88;2.33;;;;;;;;;;5024489;28;20268;-61
2022/08/03 01:36:18;;;;;;;9.10;2.65;;;;;;;;;;5024039;28;20293;-61
2022/08/03 01:38:47;;;;;;;10.13;2.65;;;;;;;;;;5041988;28;20207;-61
2022/08/03 01:41:14;;;;;;;6.75;2.42;;;;;;;;;;5024397;28;20252;-61
2022/08/03 01:43:41;;;;;;;11.23;2.70;;;;;;;;;;5037509;28;20211;-61
2022/08/03 01:46:06;;;;;;;8.95;2.72;;;;;;;;;;5015301;28;20211;-62
2022/08/03 01:48:31;;;;;;;7.65;2.00;;;;;;;;;;5016095;28;20222;-61
2022/08/03 01:50:57;;;;;;;11.93;2.88;;;;;;;;;;5037253;28;20222;-61
2022/08/03 01:53:22;;;;;;;13.18;2.67;;;;;;;;;;5029164;28;20212;-61
2022/08/03 01:55:48;;;;;;;12.98;2.92;;;;;;;;;;5022658;28;20266;-61
2022/08/03 01:58:14;;;;;;;9.02;3.20;;;;;;;;;;5022949;28;20644;-61
2022/08/03 02:00:39;;;;;;;7.88;2.30;;;;;;;;;;5020604;28;20258;-61
2022/08/03 02:03:04;;;;;;;7.60;2.45;;;;;;;;;;5023884;28;20219;-61
2022/08/03 02:05:30;;;;;;;8.02;2.72;;;;;;;;;;5017509;28;20600;-61
2022/08/03 02:07:55;;;;;;;8.52;2.33;;;;;;;;;;5014572;28;20215;-61
2022/08/03 02:10:21;;;;;;;9.43;2.50;;;;;;;;;;5013869;28;20219;-61
2022/08/03 02:12:46;;;;;;;9.43;2.60;;;;;;;;;;5016765;28;20269;-61
2022/08/03 02:15:11;;;;;;;5.85;2.08;;;;;;;;;;5044807;28;20284;-61
2022/08/03 02:17:37;;;;;;;6.80;2.30;;;;;;;;;;5048734;28;20690;-61
2022/08/03 02:20:03;;;;;;;9.57;2.50;;;;;;;;;;5029288;28;20255;-61
2022/08/03 02:22:28;;;;;;;7.97;2.10;;;;;;;;;;5030886;28;20215;-61
2022/08/03 02:24:53;;;;;;;7.80;2.00;;;;;;;;;;5030994;28;20227;-61
2022/08/03 02:27:20;;;;;;;7.38;2.40;;;;;;;;;;5034009;28;21436;-61
2022/08/03 02:29:46;;;;;;;9.07;2.88;;;;;;;;;;5022188;28;20523;-61
2022/08/03 02:32:12;;;;;;;9.95;2.90;;;;;;;;;;5022157;28;20725;-61
2022/08/03 02:34:37;;;;;;;9.63;2.67;;;;;;;;;;5039464;28;20268;-61
2022/08/03 02:37:03;;;;;;;10.02;2.53;;;;;;;;;;5047387;28;20205;-61
2022/08/03 02:39:29;;;;;;;10.13;2.58;;;;;;;;;;5010938;28;20323;-61
2022/08/03 02:42:00;;;;;;;7.32;2.40;;;;;;;;;;5030003;28;20616;-61
2022/08/03 02:44:26;;;;;;;10.07;2.22;;;;;;;;;;5030835;28;20211;-61
2022/08/03 02:46:53;;;;;;;8.00;2.40;;;;;;;;;;5048432;28;20215;-61
2022/08/03 02:49:18;;;;;;;10.02;2.75;;;;;;;;;;5046696;28;20624;-61
2022/08/03 02:51:44;;;;;;;9.00;2.20;;;;;;;;;;5025014;28;20558;-61
2022/08/03 02:54:09;;;;;;;10.85;2.10;;;;;;;;;;5017907;28;20208;-61
2022/08/03 02:56:34;;;;;;;7.55;2.00;;;;;;;;;;5021512;28;20225;-61
2022/08/03 02:59:00;;;;;;;6.10;2.00;;;;;;;;;;5039951;28;20211;-61
2022/08/03 03:01:26;;;;;;;7.47;2.00;;;;;;;;;;5028553;28;20226;-61
2022/08/03 03:03:51;;;;;;;6.97;2.08;;;;;;;;;;5027071;28;20768;-61
2022/08/03 03:06:16;;;;;;;9.30;2.55;;;;;;;;;;5028862;28;20727;-61
2022/08/03 03:08:42;;;;;;;6.30;2.00;;;;;;;;;;5047460;28;20221;-61
2022/08/03 03:11:07;;;;;;;5.57;2.08;;;;;;;;;;5029602;28;20211;-61
2022/08/03 03:13:32;;;;;;;8.25;2.50;;;;;;;;;;5027593;28;20218;-61
2022/08/03 03:16:00;;;;;;;8.00;2.20;;;;;;;;;;5021192;28;20246;-61
2022/08/03 03:18:26;;;;;;;7.45;2.20;;;;;;;;;;5021402;28;20211;-61
2022/08/03 03:20:51;;;;;;;6.78;2.20;;;;;;;;;;5024630;28;20215;-61
2022/08/03 03:23:17;;;;;;;7.63;2.42;;;;;;;;;;5046864;28;20218;-61
2022/08/03 03:25:42;;;;;;;9.48;2.10;;;;;;;;;;5029389;28;20787;-61
2022/08/03 03:28:08;;;;;;;6.32;2.03;;;;;;;;;;5024300;28;20211;-61
2022/08/03 03:30:33;;;;;;;6.43;2.10;;;;;;;;;;5025559;28;20214;-61
2022/08/03 03:32:58;;;;;;;9.55;2.10;;;;;;;;;;5026531;28;20361;-61
2022/08/03 03:35:24;;;;;;;16.92;2.95;;;;;;;;;;5043699;28;20203;-61
2022/08/03 03:37:49;;;;;;;8.90;2.20;;;;;;;;;;5017979;28;20330;-61
2022/08/03 03:40:14;;;;;;;5.47;1.88;;;;;;;;;;5017897;28;20267;-61
2022/08/03 03:42:40;;;;;;;44.20;5.20;;;;;;;;;;5036922;28;20225;-61
2022/08/03 03:45:06;;;;;;;11.00;2.85;;;;;;;;;;5024830;28;20211;-60
2022/08/03 03:47:32;;;;;;;10.18;2.20;;;;;;;;;;5044710;28;20686;-61
2022/08/03 03:49:57;;;;;;;5.97;2.33;;;;;;;;;;5044433;28;20207;-61
2022/08/03 03:52:22;;;;;;;7.75;2.10;;;;;;;;;;5021832;28;20631;-61
2022/08/03 03:54:48;;;;;;;5.90;1.95;;;;;;;;;;5024638;28;20220;-61
2022/08/03 03:57:13;;;;;;;11.00;2.70;;;;;;;;;;5032400;28;20704;-61
2022/08/03 03:59:40;;;;;;;8.15;2.55;;;;;;;;;;5027912;28;20228;-60
2022/08/03 04:02:05;;;;;;;7.13;2.42;;;;;;;;;;5015804;28;20314;-62
2022/08/03 04:12:43;;;;;;;7.53;2.65;;;;;;;;;;5039342;28;20277;-61
2022/08/03 04:15:08;;;;;;;10.85;2.50;;;;;;;;;;5023980;28;20223;-61
2022/08/03 04:17:34;;;;;;;7.80;2.40;;;;;;;;;;5025684;28;20215;-61
2022/08/03 04:19:59;;;;;;;6.25;2.60;;;;;;;;;;5025159;28;20226;-61
2022/08/03 04:22:25;;;;;;;5.30;2.58;;;;;;;;;;5037593;28;20306;-61
2022/08/03 04:24:52;;;;;;;6.80;2.30;;;;;;;;;;5035930;28;20207;-61
2022/08/03 04:27:19;;;;;;;8.60;2.33;;;;;;;;;;5021569;28;20294;-61
2022/08/03 04:29:45;;;;;;;11.70;2.72;;;;;;;;;;5023598;28;20219;-61
2022/08/03 04:32:11;;;;;;;10.52;2.58;;;;;;;;;;5025395;28;20247;-62
2022/08/03 04:34:36;;;;;;;7.25;2.35;;;;;;;;;;5042751;28;20257;-61
2022/08/03 04:37:01;;;;;;;5.78;2.20;;;;;;;;;;5043077;28;20245;-62
2022/08/03 04:39:28;;;;;;;9.70;2.60;;;;;;;;;;5005788;28;20215;-62
2022/08/03 04:41:54;;;;;;;7.78;2.40;;;;;;;;;;5022960;28;20784;-60
2022/08/03 04:44:20;;;;;;;8.70;2.65;;;;;;;;;;5019036;28;20307;-61
2022/08/03 04:46:45;;;;;;;11.65;2.63;;;;;;;;;;5012421;28;20972;-61
2022/08/03 04:49:11;;;;;;;8.15;2.50;;;;;;;;;;5015723;28;20212;-63
2022/08/03 04:51:37;;;;;;;9.35;2.80;;;;;;;;;;5021596;28;20305;-62
2022/08/03 04:54:03;;;;;;;9.75;2.75;;;;;;;;;;5024906;28;20670;-63
2022/08/03 04:56:28;;;;;;;8.55;2.30;;;;;;;;;;5025860;28;20301;-63
2022/08/03 04:58:54;;;;;;;8.90;2.38;;;;;;;;;;5025454;28;20291;-63
2022/08/03 05:01:19;;;;;;;9.27;2.83;;;;;;;;;;5023955;28;20302;-62
2022/08/03 05:03:45;;;;;;;8.60;2.50;;;;;;;;;;5024628;28;20227;-61
2022/08/03 05:06:10;;;;;;;9.40;2.85;;;;;;;;;;5023462;28;20411;-61
2022/08/03 05:08:36;;;;;;;10.52;2.70;;;;;;;;;;5016227;28;20564;-62
2022/08/03 05:11:01;;;;;;;8.63;2.80;;;;;;;;;;5016672;28;20572;-63
2022/08/03 05:13:26;;;;;;;11.00;3.00;;;;;;;;;;5012571;28;20698;-61
2022/08/03 05:15:52;;;;;;;10.43;3.55;;;;;;;;;;5041277;28;20670;-62
2022/08/03 05:18:17;;;;;;;10.57;3.38;;;;;;;;;;5041729;28;20670;-61
2022/08/03 05:20:42;;;;;;;10.95;3.22;;;;;;;;;;5042346;28;20238;-61
2022/08/03 05:23:08;;;;;;;11.57;3.65;;;;;;;;;;5040748;28;20210;-62
2022/08/03 05:25:33;;;;;;;12.43;4.13;;;;;;;;;;5040847;28;20438;-61
2022/08/03 05:27:59;;;;;;;9.05;3.60;;;;;;;;;;5023799;28;20224;-61
2022/08/03 05:30:24;;;;;;;13.30;4.43;;;;;;;;;;5014940;28;20208;-61
2022/08/03 05:32:49;;;;;;;8.48;3.30;;;;;;;;;;5014113;28;20220;-61
2022/08/03 05:35:14;;;;;;;11.45;3.88;;;;;;;;;;5013949;28;20757;-61
2022/08/03 05:37:40;;;;;;;12.23;4.50;;;;;;;;;;5019884;28;20218;-61
2022/08/03 05:40:05;;;;;;;12.48;4.95;;;;;;;;;;5021600;28;20212;-62
2022/08/03 05:42:31;;;;;;;10.63;3.75;;;;;;;;;;5022259;28;20219;-61
2022/08/03 05:44:56;;;;;;;13.20;4.13;;;;;;;;;;5021355;28;20788;-61
2022/08/03 05:47:22;;;;;;;13.73;4.38;;;;;;;;;;5022052;28;20208;-61
2022/08/03 05:49:47;;;;;;;16.40;4.47;;;;;;;;;;5040523;28;20245;-62
2022/08/03 05:52:12;;;;;;;12.65;4.47;;;;;;;;;;5033520;28;20743;-61
2022/08/03 05:54:38;;;;;;;14.60;4.78;;;;;;;;;;5014286;28;20239;-61
2022/08/03 05:57:03;;;;;;;11.65;3.92;;;;;;;;;;5013248;28;20211;-61
2022/08/03 05:59:28;;;;;;;15.88;4.25;;;;;;;;;;5017638;28;20362;-61
2022/08/03 06:01:54;;;;;;;11.57;4.05;;;;;;;;;;5041085;28;20230;-61
2022/08/03 06:04:19;;;;;;;17.23;4.20;;;;;;;;;;5030682;28;20215;-61
2022/08/03 06:06:44;;;;;;;12.93;4.05;;;;;;;;;;5022140;28;20227;-61
2022/08/03 06:09:09;;;;;;;11.15;3.45;;;;;;;;;;5021624;28;20238;-62
2022/08/03 06:11:35;;;;;;;12.93;4.03;;;;;;;;;;5021119;28;20262;-61
2022/08/03 06:14:00;;;;;;;11.88;3.83;;;;;;;;;;5020166;28;20406;-63
2022/08/03 06:16:26;;;;;;;13.38;3.33;;;;;;;;;;5014161;28;20241;-62
2022/08/03 06:18:51;;;;;;;10.20;2.92;;;;;;;;;;5032206;28;20215;-61
2022/08/03 06:21:16;;;;;;;11.13;3.20;;;;;;;;;;5033351;28;20429;-61
2022/08/03 06:23:42;;;;;;;10.68;2.97;;;;;;;;;;5041633;28;20701;-61
2022/08/03 06:26:07;;;;;;;14.70;3.03;;;;;;;;;;5036274;28;20212;-61
2022/08/03 06:28:33;;;;;;;12.13;3.70;;;;;;;;;;5021737;28;20215;-62
2022/08/03 06:30:58;;;;;;;14.43;2.40;;;;;;;;;;5021370;28;20712;-61
2022/08/03 06:33:25;;;;;;;10.25;2.60;;;;;;;;;;5020608;28;20220;-62
2022/08/03 06:35:50;;;;;;;15.45;3.35;;;;;;;;;;5036920;28;20649;-61
2022/08/03 06:38:15;;;;;;;9.82;2.80;;;;;;;;;;5014765;28;20865;-61
2022/08/03 06:40:41;;;;;;;8.63;2.83;;;;;;;;;;5012726;28;20219;-63
2022/08/03 06:43:06;;;;;;;13.15;2.92;;;;;;;;;;5012935;28;20215;-62
2022/08/03 06:45:32;;;;;;;14.65;3.22;;;;;;;;;;5019978;28;20246;-61
2022/08/03 06:47:59;;;;;;;9.85;2.35;;;;;;;;;;5020439;28;20223;-61
2022/08/03 06:50:24;;;;;;;12.02;2.92;;;;;;;;;;5020737;28;20208;-61
2022/08/03 06:52:50;;;;;;;11.93;2.90;;;;;;;;;;5021361;28;20958;-61
2022/08/03 06:55:15;;;;;;;13.48;2.38;;;;;;;;;;5019970;28;20228;-62
2022/08/03 06:57:40;;;;;;;12.43;2.75;;;;;;;;;;5040645;28;20690;-61
2022/08/03 07:00:06;;;;;;;9.73;2.67;;;;;;;;;;5025454;28;21038;-62
2022/08/03 07:02:31;;;;;;;11.23;2.60;;;;;;;;;;5050981;28;20298;-60
2022/08/03 07:04:57;;;;;;;9.93;2.70;;;;;;;;;;5053977;28;20628;-60
2022/08/03 07:07:22;;;;;;;11.18;2.78;;;;;;;;;;5053226;28;20605;-61
2022/08/03 07:09:47;;;;;;;13.50;3.17;;;;;;;;;;5054499;28;20219;-60
2022/08/03 07:12:13;;;;;;;11.82;3.03;;;;;;;;;;5053814;28;20234;-61
2022/08/03 07:14:38;;;;;;;11.93;3.35;;;;;;;;;;5053271;28;20211;-60
2022/08/03 07:17:03;;;;;;;18.05;3.97;;;;;;;;;;5053839;28;20645;-61
2022/08/03 07:19:29;;;;;;;11.95;2.85;;;;;;;;;;5036636;28;20211;-60
2022/08/03 07:21:55;;;;;;;14.30;3.45;;;;;;;;;;5053318;28;20255;-61
2022/08/03 07:24:20;;;;;;;14.95;3.38;;;;;;;;;;5053748;28;20416;-61
2022/08/03 07:26:45;;;;;;;13.20;2.55;;;;;;;;;;5049407;28;20223;-60
2022/08/03 07:29:11;;;;;;;14.20;3.28;;;;;;;;;;5032659;28;20609;-61
2022/08/03 07:31:37;;;;;;;12.55;3.10;;;;;;;;;;5033949;28;20249;-60
2022/08/03 07:34:02;;;;;;;15.52;3.10;;;;;;;;;;5033674;28;20204;-62
2022/08/03 07:36:27;;;;;;;16.45;2.88;;;;;;;;;;5033113;28;20227;-61
2022/08/03 07:38:53;;;;;;;18.15;3.50;;;;;;;;;;5033928;28;20208;-60
2022/08/03 07:41:18;;;;;;;13.38;2.42;;;;;;;;;;5033303;28;20691;-60
2022/08/03 07:43:43;;;;;;;13.85;2.50;;;;;;;;;;5032993;28;20220;-61
2022/08/03 07:46:09;;;;;;;16.58;3.30;;;;;;;;;;5033435;28;20569;-62
2022/08/03 07:48:34;;;;;;;10.38;2.55;;;;;;;;;;5033918;28;20215;-62
2022/08/03 07:50:59;;;;;;;11.43;2.25;;;;;;;;;;5032942;28;20215;-61
2022/08/03 07:53:25;;;;;;;13.63;3.45;;;;;;;;;;5046892;28;20207;-61
2022/08/03 07:55:50;;;;;;;13.88;2.65;;;;;;;;;;5053627;28;20708;-60
2022/08/03 07:58:16;;;;;;;15.48;2.60;;;;;;;;;;5052005;28;20219;-61
2022/08/03 08:00:43;;;;;;;14.00;2.90;;;;;;;;;;5053429;28;20255;-61
2022/08/03 08:03:08;;;;;;;15.55;2.75;;;;;;;;;;5052724;28;20278;-62
2022/08/03 08:05:34;;;;;;;16.40;3.00;;;;;;;;;;5034383;28;20239;-61
2022/08/03 08:08:00;;;;;;;11.98;2.90;;;;;;;;;;5053169;28;20215;-61
2022/08/03 08:10:25;;;;;;;13.63;3.00;;;;;;;;;;5052785;28;20207;-61
2022/08/03 08:12:51;;;;;;;11.95;2.38;;;;;;;;;;5033683;28;20235;-61
2022/08/03 08:15:16;;;;;;;13.70;2.38;;;;;;;;;;5032794;28;20204;-61
2022/08/03 08:17:42;;;;;;;12.57;2.72;;;;;;;;;;5032741;28;20223;-61
2022/08/03 08:20:08;;;;;;;12.40;2.70;;;;;;;;;;5015071;28;20274;-60
2022/08/03 08:22:33;;;;;;;9.95;2.58;;;;;;;;;;5033162;28;20227;-61
2022/08/03 08:24:58;;;;;;;17.73;3.03;;;;;;;;;;5032615;28;20220;-60
2022/08/03 08:27:24;;;;;;;13.45;2.70;;;;;;;;;;5032543;28;20273;-60
2022/08/03 08:29:49;;;;;;;15.57;3.22;;;;;;;;;;5015070;28;20211;-59
2022/08/03 08:32:15;;;;;;;13.63;3.13;;;;;;;;;;5031752;28;20319;-60
2022/08/03 08:34:40;;;;;;;15.73;3.15;;;;;;;;;;5032981;28;20235;-60
2022/08/03 08:37:05;;;;;;;14.32;2.92;;;;;;;;;;5032437;28;20621;-60
2022/08/03 08:39:31;;;;;;;16.15;3.42;;;;;;;;;;5032211;28;20216;-59
2022/08/03 08:41:56;;;;;;;21.08;4.15;;;;;;;;;;5032839;28;20216;-59
2022/08/03 08:44:21;;;;;;;15.13;2.88;;;;;;;;;;5032040;28;20251;-59
2022/08/03 08:46:46;;;;;;;17.00;3.13;;;;;;;;;;5032029;28;20703;-59
2022/08/03 08:49:12;;;;;;;20.52;3.75;;;;;;;;;;5032296;28;20212;-60
2022/08/03 08:51:39;;;;;;;14.07;3.03;;;;;;;;;;5014692;28;20644;-60
2022/08/03 08:54:06;;;;;;;11.75;2.70;;;;;;;;;;5033104;28;20696;-60
2022/08/03 08:56:31;;;;;;;16.90;3.50;;;;;;;;;;5052580;28;20578;-59
2022/08/03 08:58:57;;;;;;;17.75;2.92;;;;;;;;;;5052007;28;20768;-60
2022/08/03 09:01:22;;;;;;;17.95;2.90;;;;;;;;;;5051179;28;20215;-60
2022/08/03 09:03:48;;;;;;;17.50;3.05;;;;;;;;;;5034415;28;20215;-60
2022/08/03 09:06:14;;;;;;;20.42;3.58;;;;;;;;;;5051507;28;20307;-60
2022/08/03 09:08:39;;;;;;;16.70;3.67;;;;;;;;;;5051310;28;20217;-60
2022/08/03 09:11:06;;;;;;;22.40;3.30;;;;;;;;;;5051615;28;20337;-59
2022/08/03 09:13:31;;;;;;;16.70;2.97;;;;;;;;;;5051661;28;20227;-59
2022/08/03 09:16:13;;;;;;;14.18;2.85;;;;;;;;;;5051523;28;20226;-59
2022/08/03 09:18:38;;;;;;;20.08;3.70;;;;;;;;;;5051694;28;20222;-59
2022/08/03 09:21:18;;;;;;;20.75;4.03;;;;;;;;;;5050775;28;20215;-59
2022/08/03 09:23:44;;;;;;;25.40;3.63;;;;;;;;;;5051563;28;20222;-59
2022/08/03 09:26:10;;;;;;;20.48;3.42;;;;;;;;;;5051113;28;20620;-60
2022/08/03 09:28:35;;;;;;;17.83;3.75;;;;;;;;;;5032827;28;20226;-59
2022/08/03 09:31:00;;;;;;;17.25;2.95;;;;;;;;;;5051223;28;20261;-63
2022/08/03 09:33:25;;;;;;;20.40;2.50;;;;;;;;;;5051661;28;20246;-60
2022/08/03 09:35:51;;;;;;;24.40;3.50;;;;;;;;;;5033359;28;20297;-61
2022/08/03 09:38:18;;;;;;;33.53;5.15;;;;;;;;;;5051207;28;20294;-60
2022/08/03 09:40:44;;;;;;;15.27;3.30;;;;;;;;;;5051636;28;20214;-59
2022/08/03 09:43:09;;;;;;;26.02;3.08;;;;;;;;;;5050396;28;20613;-61
2022/08/03 09:45:35;;;;;;;19.30;3.45;;;;;;;;;;5051525;28;20294;-60
2022/08/03 09:48:19;;;;;;;21.88;2.80;;;;;;;;;;5051102;28;20261;-62
2022/08/03 09:50:48;;;;;;;19.58;2.90;;;;;;;;;;5050849;28;20264;-60
2022/08/03 09:53:14;;;;;;;19.25;3.78;;;;;;;;;;5050731;28;20234;-60
2022/08/03 09:55:39;;;;;;;16.73;3.03;;;;;;;;;;5051616;28;20705;-60
2022/08/03 09:58:05;;;;;;;23.70;3.58;;;;;;;;;;5032207;28;20706;-60
2022/08/03 10:00:31;;;;;;;16.23;2.70;;;;;;;;;;5051224;28;20366;-60
2022/08/03 10:03:02;;;;;;;15.70;2.70;;;;;;;;;;5051475;28;20718;-60
2022/08/03 10:05:30;;;;;;;13.60;3.47;;;;;;;;;;5050001;28;20253;-62
2022/08/03 10:07:55;;;;;;;16.90;2.88;;;;;;;;;;5051414;28;20219;-61
2022/08/03 10:10:21;;;;;;;17.13;2.90;;;;;;;;;;5032168;28;20300;-61
2022/08/03 10:12:47;;;;;;;17.60;2.92;;;;;;;;;;5050793;28;20621;-60
2022/08/03 10:15:13;;;;;;;21.10;3.10;;;;;;;;;;5050675;28;20306;-61
2022/08/03 10:17:38;;;;;;;15.77;3.00;;;;;;;;;;5050824;28;20298;-60
2022/08/03 10:20:05;;;;;;;17.88;2.67;;;;;;;;;;5050732;28;20228;-61
2022/08/03 10:22:32;;;;;;;25.63;3.72;;;;;;;;;;5063270;28;20268;-61
2022/08/03 10:25:01;;;;;;;18.77;2.90;;;;;;;;;;5070231;28;20222;-61
2022/08/03 10:27:31;;;;;;;20.42;3.00;;;;;;;;;;5070553;28;20202;-61
2022/08/03 10:29:57;;;;;;;21.85;3.47;;;;;;;;;;5070967;28;20232;-61
2022/08/03 10:32:22;;;;;;;14.43;2.95;;;;;;;;;;5051778;28;20302;-61
2022/08/03 10:34:48;;;;;;;18.90;3.20;;;;;;;;;;5070949;28;20260;-61
2022/08/03 10:37:13;;;;;;;17.00;3.75;;;;;;;;;;5056098;28;20219;-62
2022/08/03 10:39:52;;;;;;;15.80;2.60;;;;;;;;;;5074175;28;20294;-61
2022/08/03 10:42:17;;;;;;;18.95;3.00;;;;;;;;;;5058194;28;20687;-61
2022/08/03 10:44:43;;;;;;;14.27;2.58;;;;;;;;;;5075109;28;20241;-61
2022/08/03 10:47:08;;;;;;;13.45;2.95;;;;;;;;;;5055837;28;20210;-61
2022/08/03 10:49:33;;;;;;;22.08;3.40;;;;;;;;;;5074978;28;20298;-61
2022/08/03 10:51:59;;;;;;;18.90;3.00;;;;;;;;;;5072805;28;20226;-61
2022/08/03 10:54:34;;;;;;;20.75;3.25;;;;;;;;;;5035652;28;20293;-61
2022/08/03 10:59:44;;;;;;;21.95;3.95;;;;;;;;;;5053662;28;20218;-62
2022/08/03 11:02:09;;;;;;;17.33;2.67;;;;;;;;;;5054088;28;20218;-61
2022/08/03 11:04:34;;;;;;;21.73;3.28;;;;;;;;;;5054315;28;20284;-61
2022/08/03 11:07:16;;;;;;;18.05;2.70;;;;;;;;;;5053803;28;20251;-61
2022/08/03 11:09:42;;;;;;;15.98;2.95;;;;;;;;;;5053942;28;20269;-61
2022/08/03 11:12:20;;;;;;;15.65;3.08;;;;;;;;;;5053520;28;20219;-62
2022/08/03 11:14:46;;;;;;;19.83;2.70;;;;;;;;;;5049324;28;20219;-61
2022/08/03 11:17:11;;;;;;;19.13;2.75;;;;;;;;;;5053811;28;20207;-61
2022/08/03 11:19:44;;;;;;;16.60;3.45;;;;;;;;;;5054290;28;20551;-62
2022/08/03 11:22:09;;;;;;;23.17;3.33;;;;;;;;;;5053060;28;20211;-61
2022/08/03 11:24:35;;;;;;;15.00;3.10;;;;;;;;;;5054274;28;20306;-61
2022/08/03 11:27:13;;;;;;;15.13;2.85;;;;;;;;;;5053301;28;20709;-62
2022/08/03 11:29:58;;;;;;;17.05;2.72;;;;;;;;;;5053398;28;20246;-61
2022/08/03 11:32:36;;;;;;;13.93;3.03;;;;;;;;;;5053401;28;20249;-62
2022/08/03 11:35:06;;;;;;;16.45;2.40;;;;;;;;;;5052889;28;20701;-62
2022/08/03 11:37:31;;;;;;;14.80;2.60;;;;;;;;;;5053769;28;20265;-63
2022/08/03 11:39:56;;;;;;;10.02;2.25;;;;;;;;;;5053800;28;20211;-61
2022/08/03 11:42:22;;;;;;;17.23;3.08;;;;;;;;;;5052039;28;20223;-61
2022/08/03 11:44:48;;;;;;;15.02;2.83;;;;;;;;;;5053685;28;20215;-61
2022/08/03 11:47:16;;;;;;;14.32;2.67;;;;;;;;;;5034333;28;20250;-61
2022/08/03 11:49:42;;;;;;;14.98;3.22;;;;;;;;;;5035470;28;20636;-61
2022/08/03 11:52:08;;;;;;;17.00;3.13;;;;;;;;;;5035187;28;20306;-61
2022/08/03 11:54:33;;;;;;;15.38;2.80;;;;;;;;;;5053281;28;20249;-61
2022/08/03 11:56:58;;;;;;;18.95;2.88;;;;;;;;;;5051812;28;20302;-61
2022/08/03 11:59:33;;;;;;;19.08;3.30;;;;;;;;;;5052243;28;20226;-60
2022/08/03 12:02:05;;;;;;;16.77;2.95;;;;;;;;;;5052969;28;20224;-61
2022/08/03 12:04:30;;;;;;;22.25;2.85;;;;;;;;;;5052040;28;20243;-61
2022/08/03 12:07:00;;;;;;;14.02;2.33;;;;;;;;;;5053433;28;20219;-61
2022/08/03 12:09:25;;;;;;;13.63;2.75;;;;;;;;;;5052969;28;20269;-61
2022/08/03 12:11:50;;;;;;;15.23;2.25;;;;;;;;;;5051871;28;20230;-61
2022/08/03 12:14:16;;;;;;;14.82;2.88;;;;;;;;;;5052659;28;20210;-61
2022/08/03 12:16:45;;;;;;;12.27;3.10;;;;;;;;;;5053049;28;20219;-61
2022/08/03 12:19:10;;;;;;;18.30;3.35;;;;;;;;;;5052184;28;20591;-61
2022/08/03 12:21:44;;;;;;;15.27;2.83;;;;;;;;;;5053702;28;20219;-61
2022/08/03 12:24:09;;;;;;;13.70;2.47;;;;;;;;;;5035268;28;20211;-61
2022/08/03 12:26:42;;;;;;;11.10;2.83;;;;;;;;;;5053956;28;20591;-61
2022/08/03 12:29:07;;;;;;;10.60;2.13;;;;;;;;;;5035938;28;20215;-61
2022/08/03 12:31:32;;;;;;;17.40;2.78;;;;;;;;;;5053083;28;20226;-61
2022/08/03 12:34:00;;;;;;;16.98;2.97;;;;;;;;;;5036213;28;20560;-61
2022/08/03 12:36:26;;;;;;;14.93;2.47;;;;;;;;;;5053537;28;20669;-61
2022/08/03 12:38:59;;;;;;;12.30;2.17;;;;;;;;;;5053032;28;20211;-60
2022/08/03 12:41:34;;;;;;;14.65;2.95;;;;;;;;;;5053226;28;20207;-61
2022/08/03 12:44:00;;;;;;;13.88;2.53;;;;;;;;;;5053613;28;20699;-61
2022/08/03 12:46:29;;;;;;;13.23;2.60;;;;;;;;;;5034759;28;20278;-61
2022/08/03 12:49:03;;;;;;;14.85;2.47;;;;;;;;;;5053370;28;20618;-61
2022/08/03 12:51:28;;;;;;;11.80;2.00;;;;;;;;;;5053028;28;20234;-61
2022/08/03 12:53:54;;;;;;;13.23;2.47;;;;;;;;;;5052704;28;20211;-61
2022/08/03 12:56:19;;;;;;;11.35;2.00;;;;;;;;;;5053059;28;20288;-61
2022/08/03 12:58:46;;;;;;;12.65;2.25;;;;;;;;;;5053421;28;20211;-61
2022/08/03 13:01:11;;;;;;;15.38;2.50;;;;;;;;;;5048434;28;20242;-61
2022/08/03 13:03:39;;;;;;;12.00;2.55;;;;;;;;;;5032942;28;20273;-61
2022/08/03 13:06:09;;;;;;;14.10;2.45;;;;;;;;;;5032346;28;20964;-61
2022/08/03 13:08:35;;;;;;;8.05;1.90;;;;;;;;;;5038228;28;20203;-61
2022/08/03 13:11:16;;;;;;;9.23;2.03;;;;;;;;;;5040895;28;20220;-61
2022/08/03 13:13:41;;;;;;;9.15;1.70;;;;;;;;;;5026775;28;20222;-61
2022/08/03 13:16:06;;;;;;;18.30;3.03;;;;;;;;;;5027113;28;20215;-61
2022/08/03 13:18:32;;;;;;;9.32;1.90;;;;;;;;;;5027380;28;20219;-61
2022/08/03 13:20:57;;;;;;;10.48;1.70;;;;;;;;;;5040440;28;20219;-61
2022/08/03 13:23:22;;;;;;;12.68;2.13;;;;;;;;;;5046109;28;20666;-61
2022/08/03 13:25:48;;;;;;;11.68;2.05;;;;;;;;;;5043701;28;20214;-60
2022/08/03 13:28:13;;;;;;;9.40;1.60;;;;;;;;;;5038060;28;20227;-61
2022/08/03 13:30:38;;;;;;;8.75;1.48;;;;;;;;;;5038217;28;20207;-61
2022/08/03 13:33:03;;;;;;;7.60;1.70;;;;;;;;;;5040814;28;20223;-61
2022/08/03 13:35:29;;;;;;;8.05;1.77;;;;;;;;;;5045302;28;20219;-61
2022/08/03 13:37:54;;;;;;;7.28;1.45;;;;;;;;;;5040313;28;20218;-61
2022/08/03 13:40:19;;;;;;;6.68;1.55;;;;;;;;;;5045596;28;20639;-61
2022/08/03 13:42:45;;;;;;;10.23;1.80;;;;;;;;;;5045676;28;20271;-60
2022/08/03 13:45:10;;;;;;;9.80;1.88;;;;;;;;;;5045556;28;20749;-61
2022/08/03 13:47:36;;;;;;;13.32;1.80;;;;;;;;;;5045509;28;20218;-61
2022/08/03 13:50:02;;;;;;;10.15;1.70;;;;;;;;;;5018097;28;20211;-62
2022/08/03 13:52:28;;;;;;;10.10;1.80;;;;;;;;;;5019026;28;20286;-61
2022/08/03 13:54:53;;;;;;;8.52;1.67;;;;;;;;;;5019419;28;20223;-61
2022/08/03 13:57:18;;;;;;;7.38;1.50;;;;;;;;;;5025536;28;20220;-61
2022/08/03 13:59:44;;;;;;;4.65;1.42;;;;;;;;;;5026868;28;20224;-61
2022/08/03 14:02:09;;;;;;;8.60;1.75;;;;;;;;;;5027832;28;20218;-61
2022/08/03 14:04:34;;;;;;;9.60;1.77;;;;;;;;;;5047274;28;20235;-61
2022/08/03 14:07:00;;;;;;;6.22;1.95;;;;;;;;;;5052577;28;20218;-61
2022/08/03 14:09:25;;;;;;;5.97;1.40;;;;;;;;;;5051524;28;20214;-61
2022/08/03 14:11:50;;;;;;;5.65;1.48;;;;;;;;;;5039387;28;20223;-61
2022/08/03 14:14:16;;;;;;;6.82;1.60;;;;;;;;;;5036968;28;20239;-61
2022/08/03 14:16:42;;;;;;;7.85;1.98;;;;;;;;;;5031642;28;20722;-61
2022/08/03 14:19:07;;;;;;;6.57;1.60;;;;;;;;;;5031632;28;20215;-61
2022/08/03 14:21:32;;;;;;;9.05;1.63;;;;;;;;;;5032181;28;20212;-61
2022/08/03 14:23:58;;;;;;;4.70;1.30;;;;;;;;;;5031786;28;20290;-61
2022/08/03 14:26:23;;;;;;;8.27;1.60;;;;;;;;;;5031924;28;20208;-61
2022/08/03 14:28:48;;;;;;;11.15;1.77;;;;;;;;;;5032318;28;20218;-61
2022/08/03 14:31:14;;;;;;;5.53;1.48;;;;;;;;;;5030695;28;20298;-61
2022/08/03 14:33:39;;;;;;;6.90;1.58;;;;;;;;;;5031983;28;20796;-60
2022/08/03 14:36:04;;;;;;;7.75;1.45;;;;;;;;;;5031708;28;20208;-61
2022/08/03 14:38:30;;;;;;;8.73;1.90;;;;;;;;;;5044996;28;20214;-61
2022/08/03 14:40:55;;;;;;;8.35;1.48;;;;;;;;;;5051864;28;20218;-61